Time;durP1;ratioP1;P1;durP2;ratioP2;P2;SDS_P1;SDS_P2;PMS_P1;PMS_P2;Temp;Humidity;BMP_temperature;BMP_pressure;BME280_temperature;BME280_humidity;BME280_pressure;Samples;Min_cycle;Max_cycle;Signal;HPM_P1;HPM_P2
2024/01/12 00:01:52;;;;;;;67.50;35.03;;;;;;;;;;5093502;28;20790;-80
2024/01/12 00:04:17;;;;;;;64.50;33.88;;;;;;;;;;5095107;28;20914;-80
2024/01/12 00:06:43;;;;;;;67.22;34.67;;;;;;;;;;5095220;28;20386;-80
2024/01/12 00:09:11;;;;;;;59.78;32.13;;;;;;;;;;5095549;28;20843;-80
2024/01/12 00:11:38;;;;;;;64.38;33.53;;;;;;;;;;5094894;28;20466;-80
2024/01/12 00:14:04;;;;;;;66.07;33.88;;;;;;;;;;5094837;28;20413;-80
2024/01/12 00:16:30;;;;;;;68.20;33.80;;;;;;;;;;5095052;28;20378;-80
2024/01/12 00:18:56;;;;;;;66.70;35.00;;;;;;;;;;5095023;28;20403;-80
2024/01/12 00:21:22;;;;;;;68.55;35.45;;;;;;;;;;5094987;28;20378;-81
2024/01/12 00:23:48;;;;;;;67.07;35.80;;;;;;;;;;5095247;28;20397;-80
2024/01/12 00:26:14;;;;;;;69.43;36.17;;;;;;;;;;5095529;28;20483;-81
2024/01/12 00:28:40;;;;;;;67.90;35.13;;;;;;;;;;5077314;28;20383;-80
2024/01/12 00:31:06;;;;;;;71.30;37.30;;;;;;;;;;5095051;28;20416;-80
2024/01/12 00:33:32;;;;;;;74.88;38.13;;;;;;;;;;5095189;28;20437;-81
2024/01/12 00:35:58;;;;;;;74.70;37.05;;;;;;;;;;5093603;28;20716;-80
2024/01/12 00:38:24;;;;;;;71.05;37.35;;;;;;;;;;5094845;28;20393;-80
2024/01/12 00:40:50;;;;;;;71.07;38.15;;;;;;;;;;5077016;28;20472;-81
2024/01/12 00:43:16;;;;;;;74.20;38.57;;;;;;;;;;5094895;28;20406;-81
2024/01/12 00:45:42;;;;;;;77.00;38.67;;;;;;;;;;5095261;28;20390;-81
2024/01/12 00:48:08;;;;;;;77.30;39.70;;;;;;;;;;5094486;28;20406;-80
2024/01/12 00:50:34;;;;;;;79.38;40.58;;;;;;;;;;5094882;28;20393;-80
2024/01/12 00:53:00;;;;;;;81.43;41.72;;;;;;;;;;5094179;28;20402;-80
2024/01/12 00:55:26;;;;;;;80.28;40.13;;;;;;;;;;5094375;28;20842;-80
2024/01/12 00:57:52;;;;;;;83.03;41.28;;;;;;;;;;5094410;28;20856;-80
2024/01/12 01:00:18;;;;;;;84.97;41.35;;;;;;;;;;5095880;28;20390;-80
2024/01/12 01:02:44;;;;;;;81.65;41.47;;;;;;;;;;5099092;28;20732;-80
2024/01/12 01:05:11;;;;;;;79.63;40.70;;;;;;;;;;5099304;28;20388;-80
2024/01/12 01:07:37;;;;;;;81.88;40.30;;;;;;;;;;5081097;28;20457;-80
2024/01/12 01:10:03;;;;;;;87.80;42.30;;;;;;;;;;5098708;28;20384;-80
2024/01/12 01:12:29;;;;;;;83.80;41.50;;;;;;;;;;5098745;28;20410;-80
2024/01/12 01:14:55;;;;;;;86.70;40.63;;;;;;;;;;5098334;28;20370;-80
2024/01/12 01:17:21;;;;;;;81.43;41.47;;;;;;;;;;5098266;28;20759;-80
2024/01/12 01:19:47;;;;;;;77.00;40.58;;;;;;;;;;5098550;28;20423;-80
2024/01/12 01:22:13;;;;;;;81.22;40.47;;;;;;;;;;5098062;28;20374;-80
2024/01/12 01:24:39;;;;;;;82.80;41.28;;;;;;;;;;5098392;28;20412;-80
2024/01/12 01:27:07;;;;;;;77.40;39.63;;;;;;;;;;5097872;28;20736;-80
2024/01/12 01:29:33;;;;;;;78.25;39.50;;;;;;;;;;5098364;28;20408;-80
2024/01/12 01:31:59;;;;;;;81.68;39.90;;;;;;;;;;5098458;28;20425;-80
2024/01/12 01:34:25;;;;;;;81.38;41.33;;;;;;;;;;5098163;28;20488;-80
2024/01/12 01:36:51;;;;;;;83.43;41.55;;;;;;;;;;5097709;28;20378;-80
2024/01/12 01:39:17;;;;;;;83.47;41.67;;;;;;;;;;5098011;28;20724;-80
2024/01/12 01:41:43;;;;;;;89.95;42.10;;;;;;;;;;5097820;28;20370;-80
2024/01/12 01:44:09;;;;;;;92.32;43.08;;;;;;;;;;5097757;28;20402;-80
2024/01/12 01:46:35;;;;;;;90.88;42.80;;;;;;;;;;5098315;28;20404;-80
2024/01/12 01:49:01;;;;;;;91.25;43.25;;;;;;;;;;5098704;28;20378;-80
2024/01/12 01:51:27;;;;;;;95.50;43.30;;;;;;;;;;5098540;28;20450;-80
2024/01/12 01:53:53;;;;;;;102.75;46.65;;;;;;;;;;5097999;28;20400;-80
2024/01/12 01:56:20;;;;;;;106.65;47.13;;;;;;;;;;5097735;28;20366;-80
2024/01/12 01:58:46;;;;;;;108.20;48.57;;;;;;;;;;5097598;28;20415;-80
2024/01/12 02:01:13;;;;;;;113.23;48.40;;;;;;;;;;5097974;28;20398;-80
2024/01/12 02:03:40;;;;;;;111.15;48.22;;;;;;;;;;5097126;28;20488;-80
2024/01/12 02:06:06;;;;;;;111.22;48.95;;;;;;;;;;5097336;28;20381;-80
2024/01/12 02:08:32;;;;;;;116.25;49.50;;;;;;;;;;5097617;28;20381;-80
2024/01/12 02:10:59;;;;;;;112.45;47.50;;;;;;;;;;5096399;28;20393;-79
2024/01/12 02:13:25;;;;;;;113.47;49.77;;;;;;;;;;5096761;28;20396;-79
2024/01/12 02:15:51;;;;;;;115.15;48.72;;;;;;;;;;5097699;28;20760;-79
2024/01/12 02:18:17;;;;;;;113.83;47.93;;;;;;;;;;5096786;28;20378;-79
2024/01/12 02:20:47;;;;;;;110.47;48.03;;;;;;;;;;5097894;28;20374;-80
2024/01/12 02:23:13;;;;;;;109.95;48.25;;;;;;;;;;5097592;28;20430;-80
2024/01/12 02:25:39;;;;;;;114.60;47.80;;;;;;;;;;5097387;28;20465;-80
2024/01/12 02:28:05;;;;;;;107.40;47.22;;;;;;;;;;5097355;28;20873;-80
2024/01/12 02:30:31;;;;;;;110.13;48.20;;;;;;;;;;5097010;28;20382;-80
2024/01/12 02:32:57;;;;;;;104.35;47.50;;;;;;;;;;5097018;28;20416;-80
2024/01/12 02:35:23;;;;;;;103.15;46.17;;;;;;;;;;5097016;28;20380;-80
2024/01/12 02:37:49;;;;;;;107.05;48.65;;;;;;;;;;5096726;28;20374;-80
2024/01/12 02:40:15;;;;;;;93.80;45.08;;;;;;;;;;5079110;28;20786;-80
2024/01/12 02:42:41;;;;;;;99.93;46.33;;;;;;;;;;5096934;28;20448;-80
2024/01/12 02:45:07;;;;;;;103.10;46.25;;;;;;;;;;5096400;28;20414;-80
2024/01/12 02:47:33;;;;;;;98.18;45.17;;;;;;;;;;5096053;28;20430;-80
2024/01/12 02:49:59;;;;;;;97.63;45.13;;;;;;;;;;5096726;28;20382;-80
2024/01/12 02:52:25;;;;;;;95.07;44.38;;;;;;;;;;5096576;28;20384;-80
2024/01/12 02:54:51;;;;;;;94.82;44.35;;;;;;;;;;5096393;28;20417;-80
2024/01/12 02:57:17;;;;;;;93.90;43.50;;;;;;;;;;5097087;28;20382;-79
2024/01/12 02:59:43;;;;;;;90.53;42.25;;;;;;;;;;5096493;28;20370;-80
2024/01/12 03:02:09;;;;;;;88.90;41.92;;;;;;;;;;5084960;28;20390;-80
2024/01/12 03:04:35;;;;;;;92.32;42.25;;;;;;;;;;5076119;28;20387;-80
2024/01/12 03:07:01;;;;;;;87.00;40.97;;;;;;;;;;5076403;28;20773;-80
2024/01/12 03:09:27;;;;;;;95.55;43.10;;;;;;;;;;5076382;28;20384;-81
2024/01/12 03:11:53;;;;;;;96.43;44.30;;;;;;;;;;5075565;28;20386;-80
2024/01/12 03:14:19;;;;;;;96.60;44.85;;;;;;;;;;5075851;28;20829;-80
2024/01/12 03:16:45;;;;;;;95.53;44.07;;;;;;;;;;5058075;28;20428;-80
2024/01/12 03:19:11;;;;;;;92.20;43.40;;;;;;;;;;5075823;28;20856;-80
2024/01/12 03:21:37;;;;;;;97.75;44.10;;;;;;;;;;5075688;28;20387;-80
2024/01/12 03:24:03;;;;;;;95.45;43.63;;;;;;;;;;5075476;28;20479;-80
2024/01/12 03:26:29;;;;;;;98.07;43.20;;;;;;;;;;5076336;28;20406;-81
2024/01/12 03:28:55;;;;;;;94.22;44.22;;;;;;;;;;5095193;28;20382;-80
2024/01/12 03:31:21;;;;;;;92.10;43.15;;;;;;;;;;5095447;28;20378;-81
2024/01/12 03:33:47;;;;;;;92.30;43.83;;;;;;;;;;5096039;28;20736;-80
2024/01/12 03:36:13;;;;;;;93.93;44.80;;;;;;;;;;5096234;28;20378;-80
2024/01/12 03:38:39;;;;;;;91.57;43.20;;;;;;;;;;5096232;28;20405;-80
2024/01/12 03:41:06;;;;;;;92.53;43.72;;;;;;;;;;5095928;28;20717;-80
2024/01/12 03:43:32;;;;;;;91.75;43.13;;;;;;;;;;5095701;28;20398;-80
2024/01/12 03:45:58;;;;;;;87.68;40.80;;;;;;;;;;5095856;28;20388;-80
2024/01/12 03:48:24;;;;;;;86.47;41.95;;;;;;;;;;5095422;28;20751;-80
2024/01/12 03:50:50;;;;;;;90.60;43.00;;;;;;;;;;5096228;28;20383;-80
2024/01/12 03:53:16;;;;;;;86.43;40.70;;;;;;;;;;5095763;28;20408;-80
2024/01/12 03:55:42;;;;;;;81.90;41.35;;;;;;;;;;5095075;28;20386;-80
2024/01/12 03:58:08;;;;;;;82.87;40.27;;;;;;;;;;5094795;28;20421;-80
2024/01/12 04:00:34;;;;;;;85.43;42.22;;;;;;;;;;5095252;28;20743;-80
2024/01/12 04:03:00;;;;;;;90.13;43.97;;;;;;;;;;5095138;28;20445;-81
2024/01/12 04:05:26;;;;;;;88.95;41.25;;;;;;;;;;5095089;28;20386;-80
2024/01/12 04:07:52;;;;;;;92.30;42.95;;;;;;;;;;5094660;28;20947;-80
2024/01/12 04:10:18;;;;;;;87.90;43.67;;;;;;;;;;5095173;28;20462;-80
2024/01/12 04:12:44;;;;;;;88.93;42.47;;;;;;;;;;5094730;28;20917;-80
2024/01/12 04:15:10;;;;;;;93.78;42.83;;;;;;;;;;5095237;28;20386;-80
2024/01/12 04:17:36;;;;;;;97.33;45.10;;;;;;;;;;5077100;28;20937;-80
2024/01/12 04:20:02;;;;;;;104.95;46.88;;;;;;;;;;5094736;28;20844;-80
2024/01/12 04:22:28;;;;;;;103.60;46.17;;;;;;;;;;5094833;28;20378;-81
2024/01/12 04:24:54;;;;;;;106.30;46.63;;;;;;;;;;5094770;28;20393;-80
2024/01/12 04:27:20;;;;;;;97.47;45.08;;;;;;;;;;5094548;28;20386;-80
2024/01/12 04:29:46;;;;;;;97.00;45.25;;;;;;;;;;5094934;28;20824;-80
2024/01/12 04:32:12;;;;;;;95.25;43.58;;;;;;;;;;5093958;28;20410;-80
2024/01/12 04:34:38;;;;;;;94.72;44.13;;;;;;;;;;5093869;28;20397;-80
2024/01/12 04:37:05;;;;;;;98.82;43.63;;;;;;;;;;5094188;28;20381;-80
2024/01/12 04:39:31;;;;;;;98.82;44.78;;;;;;;;;;5093821;28;20511;-80
2024/01/12 04:41:57;;;;;;;99.53;45.00;;;;;;;;;;5076279;28;20393;-81
2024/01/12 04:44:23;;;;;;;98.75;44.40;;;;;;;;;;5094073;28;20398;-80
2024/01/12 04:46:50;;;;;;;100.05;44.92;;;;;;;;;;5094293;28;20381;-80
2024/01/12 04:49:16;;;;;;;98.50;44.08;;;;;;;;;;5094265;28;20381;-81
2024/01/12 04:51:42;;;;;;;103.57;44.97;;;;;;;;;;5094800;28;20440;-80
2024/01/12 04:54:08;;;;;;;98.93;43.75;;;;;;;;;;5094240;28;20948;-80
2024/01/12 04:56:34;;;;;;;103.20;45.23;;;;;;;;;;5093790;28;20399;-80
2024/01/12 04:59:00;;;;;;;106.45;45.50;;;;;;;;;;5094683;28;20451;-81
2024/01/12 05:01:26;;;;;;;99.25;42.30;;;;;;;;;;5093478;28;20374;-80
2024/01/12 05:03:52;;;;;;;97.90;43.90;;;;;;;;;;5079727;28;20465;-81
2024/01/12 05:06:18;;;;;;;103.75;44.53;;;;;;;;;;5073797;28;20900;-80
2024/01/12 05:08:44;;;;;;;104.82;43.58;;;;;;;;;;5073724;28;20394;-80
2024/01/12 05:11:10;;;;;;;100.80;43.38;;;;;;;;;;5073970;28;20384;-80
2024/01/12 05:13:36;;;;;;;102.90;44.00;;;;;;;;;;5072918;28;20418;-81
2024/01/12 05:16:02;;;;;;;103.32;44.25;;;;;;;;;;5073133;28;20410;-80
2024/01/12 05:18:28;;;;;;;115.33;47.33;;;;;;;;;;5073564;28;20458;-80
2024/01/12 05:20:54;;;;;;;106.22;45.15;;;;;;;;;;5055526;28;21219;-80
2024/01/12 05:23:20;;;;;;;110.03;45.40;;;;;;;;;;5073298;28;20387;-80
2024/01/12 05:25:47;;;;;;;101.20;43.97;;;;;;;;;;5073912;28;20460;-81
2024/01/12 05:28:12;;;;;;;100.85;42.95;;;;;;;;;;5073912;28;20441;-80
2024/01/12 05:30:38;;;;;;;105.60;44.63;;;;;;;;;;5073758;28;20375;-81
2024/01/12 05:33:05;;;;;;;103.40;44.28;;;;;;;;;;5074074;28;20861;-80
2024/01/12 05:35:31;;;;;;;99.90;43.37;;;;;;;;;;5074108;28;20837;-81
2024/01/12 05:37:57;;;;;;;97.57;42.17;;;;;;;;;;5055822;28;20525;-80
2024/01/12 05:40:23;;;;;;;101.20;44.83;;;;;;;;;;5074250;28;20568;-80
2024/01/12 05:42:48;;;;;;;97.03;45.05;;;;;;;;;;5073879;28;20406;-80
2024/01/12 05:45:15;;;;;;;100.85;44.22;;;;;;;;;;5074078;28;20388;-80
2024/01/12 05:47:40;;;;;;;109.18;46.08;;;;;;;;;;5077140;28;20923;-80
2024/01/12 05:50:07;;;;;;;103.63;43.28;;;;;;;;;;5076699;28;20383;-80
2024/01/12 05:52:33;;;;;;;103.70;44.97;;;;;;;;;;5077035;28;20372;-80
2024/01/12 05:55:00;;;;;;;100.65;43.65;;;;;;;;;;5072607;28;20394;-81
2024/01/12 05:57:26;;;;;;;91.18;39.85;;;;;;;;;;5097162;28;20396;-80
2024/01/12 05:59:52;;;;;;;97.40;41.60;;;;;;;;;;5097188;28;20465;-80
2024/01/12 06:02:18;;;;;;;99.18;42.03;;;;;;;;;;5097436;28;20409;-80
2024/01/12 06:04:44;;;;;;;100.55;43.60;;;;;;;;;;5079507;28;20447;-80
2024/01/12 06:07:10;;;;;;;99.43;43.00;;;;;;;;;;5080213;28;20384;-80
2024/01/12 06:09:36;;;;;;;101.30;43.17;;;;;;;;;;5097377;28;20418;-80
2024/01/12 06:12:02;;;;;;;94.35;41.88;;;;;;;;;;5096872;28;20390;-80
2024/01/12 06:14:29;;;;;;;88.18;39.40;;;;;;;;;;5097485;28;20450;-80
2024/01/12 06:16:55;;;;;;;94.03;40.83;;;;;;;;;;5097321;28;20457;-80
2024/01/12 06:19:21;;;;;;;87.45;38.85;;;;;;;;;;5097112;28;20370;-80
2024/01/12 06:21:47;;;;;;;83.17;38.70;;;;;;;;;;5097005;28;20402;-80
2024/01/12 06:24:13;;;;;;;87.38;38.95;;;;;;;;;;5097345;28;20389;-80
2024/01/12 06:26:42;;;;;;;88.63;39.20;;;;;;;;;;5096756;28;20923;-80
2024/01/12 06:29:08;;;;;;;90.55;40.08;;;;;;;;;;5096860;28;20374;-80
2024/01/12 06:31:34;;;;;;;93.20;40.90;;;;;;;;;;5096532;28;20743;-80
2024/01/12 06:34:00;;;;;;;96.53;43.35;;;;;;;;;;5096786;28;20417;-80
2024/01/12 06:36:26;;;;;;;92.30;41.03;;;;;;;;;;5096550;28;20417;-80
2024/01/12 06:38:52;;;;;;;86.55;39.03;;;;;;;;;;5097643;28;20378;-80
2024/01/12 06:41:18;;;;;;;84.80;38.90;;;;;;;;;;5097074;28;20859;-80
2024/01/12 06:43:44;;;;;;;80.82;38.15;;;;;;;;;;5096996;28;20413;-80
2024/01/12 06:46:10;;;;;;;86.05;38.88;;;;;;;;;;5096874;28;20377;-80
2024/01/12 06:48:36;;;;;;;84.47;38.25;;;;;;;;;;5097186;28;20465;-80
2024/01/12 06:51:02;;;;;;;81.18;37.78;;;;;;;;;;5096630;28;20413;-80
2024/01/12 06:53:28;;;;;;;79.38;36.83;;;;;;;;;;5096600;28;20408;-81
2024/01/12 06:55:54;;;;;;;81.15;37.72;;;;;;;;;;5096429;28;20468;-80
2024/01/12 06:58:21;;;;;;;77.93;36.53;;;;;;;;;;5096337;28;20404;-80
2024/01/12 07:00:47;;;;;;;77.07;36.80;;;;;;;;;;5091909;28;21323;-80
2024/01/12 07:03:13;;;;;;;77.50;36.05;;;;;;;;;;5096470;28;20394;-80
2024/01/12 07:05:39;;;;;;;72.80;35.35;;;;;;;;;;5096952;28;20455;-80
2024/01/12 07:08:05;;;;;;;78.35;36.67;;;;;;;;;;5095876;28;20477;-80
2024/01/12 07:10:31;;;;;;;75.88;36.03;;;;;;;;;;5096093;28;20382;-80
2024/01/12 07:12:57;;;;;;;73.50;35.53;;;;;;;;;;5096357;28;20405;-80
2024/01/12 07:15:23;;;;;;;72.03;35.85;;;;;;;;;;5096348;28;20382;-80
2024/01/12 07:17:50;;;;;;;69.60;34.55;;;;;;;;;;5078464;28;20379;-80
2024/01/12 07:20:16;;;;;;;66.47;33.42;;;;;;;;;;5096204;28;20374;-80
2024/01/12 07:22:43;;;;;;;70.80;34.35;;;;;;;;;;5096193;28;20435;-80
2024/01/12 07:25:09;;;;;;;70.40;33.63;;;;;;;;;;5096189;28;20378;-81
2024/01/12 07:27:35;;;;;;;67.80;33.78;;;;;;;;;;5096550;28;20803;-80
2024/01/12 07:30:01;;;;;;;60.63;32.58;;;;;;;;;;5096502;28;20378;-80
2024/01/12 07:32:27;;;;;;;65.28;33.97;;;;;;;;;;5095944;28;20377;-79
2024/01/12 07:34:53;;;;;;;59.70;31.80;;;;;;;;;;5096033;28;20786;-80
2024/01/12 07:37:19;;;;;;;64.70;33.63;;;;;;;;;;5095630;28;20473;-79
2024/01/12 07:39:45;;;;;;;66.82;33.75;;;;;;;;;;5095943;28;20457;-79
2024/01/12 07:42:11;;;;;;;62.25;31.95;;;;;;;;;;5096206;28;20398;-80
2024/01/12 07:44:38;;;;;;;63.23;32.53;;;;;;;;;;5095451;28;20428;-80
2024/01/12 07:47:04;;;;;;;59.58;32.03;;;;;;;;;;5095931;28;20391;-80
2024/01/12 07:49:30;;;;;;;62.40;32.10;;;;;;;;;;5095886;28;20713;-80
2024/01/12 07:51:56;;;;;;;52.80;30.75;;;;;;;;;;5095868;28;20393;-80
2024/01/12 07:54:22;;;;;;;55.55;30.45;;;;;;;;;;5095591;28;20404;-80
2024/01/12 07:56:48;;;;;;;56.90;30.63;;;;;;;;;;5096172;28;20374;-79
2024/01/12 07:59:14;;;;;;;57.93;31.40;;;;;;;;;;5077153;28;20455;-80
2024/01/12 08:01:41;;;;;;;54.08;30.13;;;;;;;;;;5095498;28;20374;-79
2024/01/12 08:04:07;;;;;;;52.65;29.70;;;;;;;;;;5095006;28;20432;-82
2024/01/12 08:06:33;;;;;;;50.72;28.75;;;;;;;;;;5096032;28;20405;-80
2024/01/12 08:08:59;;;;;;;50.70;28.77;;;;;;;;;;5095024;28;20381;-80
2024/01/12 08:11:25;;;;;;;52.83;29.17;;;;;;;;;;5095495;28;20465;-79
2024/01/12 08:13:51;;;;;;;48.47;27.98;;;;;;;;;;5095296;28;20871;-80
2024/01/12 08:16:18;;;;;;;53.92;29.33;;;;;;;;;;5095232;28;20608;-80
2024/01/12 08:18:43;;;;;;;54.00;28.80;;;;;;;;;;5095438;28;20453;-80
2024/01/12 08:21:10;;;;;;;48.38;28.23;;;;;;;;;;5095517;28;20413;-80
2024/01/12 08:23:36;;;;;;;50.05;29.30;;;;;;;;;;5095260;28;20378;-80
2024/01/12 08:26:02;;;;;;;59.45;33.13;;;;;;;;;;5095606;28;20393;-80
2024/01/12 08:28:28;;;;;;;52.90;29.65;;;;;;;;;;5095450;28;20389;-80
2024/01/12 08:30:54;;;;;;;48.70;28.77;;;;;;;;;;5095695;28;20382;-80
2024/01/12 08:33:20;;;;;;;49.85;28.10;;;;;;;;;;5095260;28;20402;-80
2024/01/12 08:35:47;;;;;;;48.70;28.75;;;;;;;;;;5095472;28;20398;-80
2024/01/12 08:38:13;;;;;;;48.00;28.20;;;;;;;;;;5095411;28;20735;-81
2024/01/12 08:40:39;;;;;;;52.60;29.43;;;;;;;;;;5095648;28;20457;-80
2024/01/12 08:43:05;;;;;;;52.05;28.63;;;;;;;;;;5095076;28;20487;-80
2024/01/12 08:45:31;;;;;;;47.42;28.05;;;;;;;;;;5095589;28;20382;-80
2024/01/12 08:47:58;;;;;;;48.92;28.88;;;;;;;;;;5095243;28;20446;-79
2024/01/12 08:50:24;;;;;;;51.45;28.92;;;;;;;;;;5095176;28;20883;-79
2024/01/12 08:52:51;;;;;;;55.50;30.70;;;;;;;;;;5077322;28;20386;-79
2024/01/12 08:55:17;;;;;;;57.22;32.80;;;;;;;;;;5095334;28;20401;-79
2024/01/12 08:57:44;;;;;;;55.27;30.13;;;;;;;;;;5095290;28;20946;-79
2024/01/12 09:00:11;;;;;;;53.03;30.73;;;;;;;;;;5095916;28;20914;-79
2024/01/12 09:02:37;;;;;;;52.97;30.90;;;;;;;;;;5095166;28;20421;-79
2024/01/12 09:05:03;;;;;;;52.27;30.67;;;;;;;;;;5095068;28;20382;-78
2024/01/12 09:07:29;;;;;;;55.97;31.15;;;;;;;;;;5094976;28;20384;-80
2024/01/12 09:09:56;;;;;;;58.28;33.30;;;;;;;;;;5088081;28;20757;-80
2024/01/12 09:12:22;;;;;;;55.28;30.92;;;;;;;;;;5075035;28;20384;-80
2024/01/12 09:14:48;;;;;;;54.10;31.20;;;;;;;;;;5056375;28;20458;-79
2024/01/12 09:17:14;;;;;;;55.00;30.70;;;;;;;;;;5074215;28;20861;-79
2024/01/12 09:19:40;;;;;;;53.58;31.55;;;;;;;;;;5075883;28;20383;-79
2024/01/12 09:22:06;;;;;;;53.95;31.52;;;;;;;;;;5077716;28;20433;-79
2024/01/12 09:24:32;;;;;;;53.45;31.02;;;;;;;;;;5077751;28;20379;-79
2024/01/12 09:26:58;;;;;;;53.78;32.00;;;;;;;;;;5078297;28;20414;-79
2024/01/12 09:29:24;;;;;;;53.20;31.17;;;;;;;;;;5078262;28;20885;-79
2024/01/12 09:31:50;;;;;;;58.13;33.43;;;;;;;;;;5078287;28;20471;-79
2024/01/12 09:34:16;;;;;;;55.10;34.15;;;;;;;;;;5078140;28;20877;-78
2024/01/12 09:36:42;;;;;;;55.67;32.10;;;;;;;;;;5077473;28;20387;-79
2024/01/12 09:39:14;;;;;;;62.72;34.45;;;;;;;;;;5077118;28;21249;-79
2024/01/12 09:41:47;;;;;;;72.82;38.97;;;;;;;;;;5077987;28;20513;-79
2024/01/12 09:44:15;;;;;;;72.75;39.50;;;;;;;;;;5077434;28;20510;-79
2024/01/12 09:46:47;;;;;;;82.47;43.42;;;;;;;;;;5077480;28;20372;-79
2024/01/12 09:49:13;;;;;;;73.30;40.90;;;;;;;;;;5077410;28;20483;-79
2024/01/12 09:51:39;;;;;;;79.38;41.50;;;;;;;;;;5089457;28;20382;-79
2024/01/12 09:54:05;;;;;;;66.43;36.95;;;;;;;;;;5097531;28;20413;-79
2024/01/12 09:56:31;;;;;;;92.00;43.67;;;;;;;;;;5097227;28;20905;-79
2024/01/12 09:58:57;;;;;;;83.95;42.17;;;;;;;;;;5097298;28;20771;-79
2024/01/12 10:01:24;;;;;;;73.18;39.08;;;;;;;;;;5097234;28;20376;-79
2024/01/12 10:03:51;;;;;;;68.68;37.28;;;;;;;;;;5097232;28;20375;-80
2024/01/12 10:06:17;;;;;;;72.00;38.37;;;;;;;;;;5097264;28;20367;-80
2024/01/12 10:08:43;;;;;;;74.25;39.92;;;;;;;;;;5096415;28;20397;-80
2024/01/12 10:11:09;;;;;;;64.60;37.42;;;;;;;;;;5096431;28;20880;-80
2024/01/12 10:13:35;;;;;;;67.07;37.27;;;;;;;;;;5096535;28;20406;-80
2024/01/12 10:16:01;;;;;;;68.28;37.38;;;;;;;;;;5096305;28;20460;-79
2024/01/12 10:18:27;;;;;;;71.70;38.83;;;;;;;;;;5095946;28;20735;-79
2024/01/12 10:20:53;;;;;;;70.55;39.08;;;;;;;;;;5096430;28;20371;-80
2024/01/12 10:23:20;;;;;;;67.32;38.28;;;;;;;;;;5096676;28;20797;-79
2024/01/12 10:25:56;;;;;;;68.17;38.67;;;;;;;;;;5096764;28;20728;-79
2024/01/12 10:28:22;;;;;;;70.22;39.40;;;;;;;;;;5096375;28;20381;-79
2024/01/12 10:30:48;;;;;;;73.22;37.95;;;;;;;;;;5095888;28;20373;-79
2024/01/12 10:33:18;;;;;;;85.68;41.08;;;;;;;;;;5095432;28;20402;-79
2024/01/12 10:35:46;;;;;;;83.88;41.17;;;;;;;;;;5096305;28;20386;-80
2024/01/12 10:38:14;;;;;;;89.78;41.83;;;;;;;;;;5096026;28;20372;-80
2024/01/12 10:40:40;;;;;;;84.60;42.42;;;;;;;;;;5096398;28;20461;-80
2024/01/12 10:43:11;;;;;;;84.50;42.22;;;;;;;;;;5097625;28;20497;-80
2024/01/12 10:45:39;;;;;;;84.55;42.30;;;;;;;;;;5101710;28;20707;-80
2024/01/12 10:48:08;;;;;;;80.07;41.25;;;;;;;;;;5082561;28;20417;-80
2024/01/12 10:50:37;;;;;;;77.22;39.33;;;;;;;;;;5099128;28;20424;-80
2024/01/12 10:53:12;;;;;;;75.15;38.83;;;;;;;;;;5100258;28;20378;-80
2024/01/12 10:55:40;;;;;;;71.95;37.15;;;;;;;;;;5100034;28;20374;-80
2024/01/12 10:58:06;;;;;;;81.60;40.75;;;;;;;;;;5102723;28;20382;-80
2024/01/12 11:00:32;;;;;;;65.55;35.75;;;;;;;;;;5085569;28;20899;-80
2024/01/12 11:03:02;;;;;;;65.18;34.58;;;;;;;;;;5103772;28;20863;-80
2024/01/12 11:05:29;;;;;;;66.60;35.97;;;;;;;;;;5103197;28;20380;-80
2024/01/12 11:08:00;;;;;;;63.83;35.10;;;;;;;;;;5084151;28;20735;-79
2024/01/12 11:10:27;;;;;;;64.60;35.08;;;;;;;;;;5102390;28;20460;-79
2024/01/12 11:12:53;;;;;;;66.53;35.17;;;;;;;;;;5093954;28;20451;-79
2024/01/12 11:15:20;;;;;;;62.63;34.97;;;;;;;;;;5081860;28;20434;-79
2024/01/12 11:17:46;;;;;;;63.63;34.90;;;;;;;;;;5083544;28;20412;-79
2024/01/12 11:20:13;;;;;;;57.67;32.92;;;;;;;;;;5083743;28;20388;-79
2024/01/12 11:22:39;;;;;;;70.18;34.97;;;;;;;;;;5083197;28;20449;-80
2024/01/12 11:25:09;;;;;;;62.95;33.60;;;;;;;;;;5083962;28;20381;-79
2024/01/12 11:27:37;;;;;;;62.77;34.47;;;;;;;;;;5082518;28;20421;-79
2024/01/12 11:30:05;;;;;;;60.13;32.80;;;;;;;;;;5083166;28;20829;-79
2024/01/12 11:32:31;;;;;;;59.70;33.58;;;;;;;;;;5082454;28;20742;-79
2024/01/12 11:35:16;;;;;;;59.58;33.17;;;;;;;;;;5082669;28;20825;-79
2024/01/12 11:37:44;;;;;;;70.10;34.83;;;;;;;;;;5083497;28;20384;-80
2024/01/12 11:40:12;;;;;;;63.05;34.22;;;;;;;;;;5082406;28;20919;-79
2024/01/12 11:42:38;;;;;;;64.22;33.97;;;;;;;;;;5080082;28;20416;-80
2024/01/12 11:45:09;;;;;;;61.65;35.25;;;;;;;;;;5078733;28;20420;-80
2024/01/12 11:47:44;;;;;;;62.15;33.75;;;;;;;;;;5091075;22;20422;-82
2024/01/12 11:50:15;;;;;;;67.78;35.55;;;;;;;;;;5057619;28;25116;-82
2024/01/12 11:52:41;;;;;;;65.18;34.72;;;;;;;;;;5055649;28;20382;-82
2024/01/12 11:55:08;;;;;;;61.85;32.65;;;;;;;;;;5073218;28;20487;-82
2024/01/12 11:57:38;;;;;;;71.25;34.40;;;;;;;;;;5067893;28;20422;-82
2024/01/12 12:00:09;;;;;;;67.97;35.65;;;;;;;;;;5052957;28;20460;-82
2024/01/12 12:02:36;;;;;;;67.60;35.38;;;;;;;;;;5052084;28;20374;-81
2024/01/12 12:05:06;;;;;;;72.15;35.80;;;;;;;;;;5051781;28;20855;-81
2024/01/12 12:07:35;;;;;;;71.37;35.70;;;;;;;;;;5051843;28;20803;-81
2024/01/12 12:10:02;;;;;;;71.03;35.72;;;;;;;;;;5052066;28;20391;-82
2024/01/12 12:12:27;;;;;;;68.60;36.03;;;;;;;;;;5052200;28;20382;-81
2024/01/12 12:15:07;;;;;;;70.55;35.78;;;;;;;;;;5034470;28;20413;-81
2024/01/12 12:17:35;;;;;;;69.85;35.92;;;;;;;;;;5051876;28;20371;-82
2024/01/12 12:20:01;;;;;;;68.15;36.60;;;;;;;;;;5052025;28;20888;-81
2024/01/12 12:22:27;;;;;;;72.90;37.47;;;;;;;;;;5052055;28;20443;-82
2024/01/12 12:24:54;;;;;;;74.57;38.00;;;;;;;;;;5051889;28;21145;-82
2024/01/12 12:27:20;;;;;;;69.43;36.80;;;;;;;;;;5051579;28;20822;-82
2024/01/12 12:29:46;;;;;;;76.82;37.53;;;;;;;;;;5051859;28;20377;-81
2024/01/12 12:32:13;;;;;;;76.38;37.75;;;;;;;;;;5051655;28;20455;-82
2024/01/12 12:34:45;;;;;;;72.93;37.67;;;;;;;;;;5051427;28;20436;-82
2024/01/12 12:37:13;;;;;;;81.30;37.67;;;;;;;;;;5034002;28;20412;-82
2024/01/12 12:39:39;;;;;;;69.22;35.80;;;;;;;;;;5052388;28;20385;-82
2024/01/12 12:42:06;;;;;;;75.97;37.00;;;;;;;;;;5051948;28;20401;-82
2024/01/12 12:44:35;;;;;;;70.75;37.25;;;;;;;;;;5052478;28;20382;-81
2024/01/12 12:47:04;;;;;;;70.70;35.67;;;;;;;;;;5054427;28;20419;-81
2024/01/12 12:49:33;;;;;;;71.28;35.78;;;;;;;;;;5053381;28;20393;-81
2024/01/12 12:52:00;;;;;;;68.20;36.30;;;;;;;;;;5052347;28;20395;-82
2024/01/12 12:54:27;;;;;;;66.43;35.97;;;;;;;;;;5034508;28;20412;-82
2024/01/12 12:56:54;;;;;;;69.60;35.78;;;;;;;;;;5055881;28;20363;-82
2024/01/12 12:59:20;;;;;;;66.03;34.03;;;;;;;;;;5057740;28;20402;-82
2024/01/12 13:01:46;;;;;;;69.13;35.72;;;;;;;;;;5057078;28;20389;-82
2024/01/12 13:04:13;;;;;;;68.40;36.00;;;;;;;;;;5057256;28;20377;-82
2024/01/12 13:06:39;;;;;;;77.03;38.20;;;;;;;;;;5057475;28;20468;-82
2024/01/12 13:09:06;;;;;;;69.72;36.25;;;;;;;;;;5057013;28;20878;-82
2024/01/12 13:11:32;;;;;;;65.25;35.53;;;;;;;;;;5061430;28;20383;-82
2024/01/12 13:13:58;;;;;;;70.68;37.60;;;;;;;;;;5057853;28;20472;-82
2024/01/12 13:16:24;;;;;;;72.10;37.88;;;;;;;;;;5057601;28;20862;-82
2024/01/12 13:18:51;;;;;;;71.53;36.90;;;;;;;;;;5057836;28;20469;-83
2024/01/12 13:21:17;;;;;;;72.57;37.28;;;;;;;;;;5057169;28;20397;-82
2024/01/12 13:23:43;;;;;;;73.67;37.97;;;;;;;;;;5058679;28;21086;-82
2024/01/12 13:26:09;;;;;;;72.20;37.20;;;;;;;;;;5058945;28;20744;-83
2024/01/12 13:28:35;;;;;;;71.95;38.28;;;;;;;;;;5057170;28;20385;-82
2024/01/12 13:31:02;;;;;;;73.07;39.00;;;;;;;;;;5057232;28;20437;-82
2024/01/12 13:33:28;;;;;;;72.65;37.88;;;;;;;;;;5058001;28;20485;-83
2024/01/12 13:35:54;;;;;;;79.75;39.42;;;;;;;;;;5057467;28;20845;-82
2024/01/12 13:38:20;;;;;;;73.18;37.00;;;;;;;;;;5057786;28;20388;-82
2024/01/12 13:40:47;;;;;;;75.30;38.88;;;;;;;;;;5058317;28;20405;-83
2024/01/12 13:43:13;;;;;;;74.82;38.28;;;;;;;;;;5057907;28;20406;-83
2024/01/12 13:45:39;;;;;;;79.63;40.17;;;;;;;;;;5057639;28;20871;-83
2024/01/12 13:48:05;;;;;;;72.53;38.63;;;;;;;;;;5058026;28;20417;-83
2024/01/12 13:50:32;;;;;;;76.50;38.95;;;;;;;;;;5057303;28;20473;-83
2024/01/12 13:53:00;;;;;;;79.22;39.55;;;;;;;;;;5057644;28;20392;-83
2024/01/12 13:55:26;;;;;;;70.28;36.65;;;;;;;;;;5057955;28;20824;-83
2024/01/12 13:57:52;;;;;;;73.93;38.80;;;;;;;;;;5058790;28;20378;-83
2024/01/12 14:00:19;;;;;;;75.95;39.55;;;;;;;;;;5059250;28;20362;-83
2024/01/12 14:02:45;;;;;;;77.13;39.00;;;;;;;;;;5057420;28;20835;-83
2024/01/12 14:05:11;;;;;;;77.45;38.17;;;;;;;;;;5057077;28;20735;-82
2024/01/12 14:07:41;;;;;;;71.95;37.22;;;;;;;;;;5056073;28;20379;-83
2024/01/12 14:10:07;;;;;;;71.85;37.65;;;;;;;;;;5057272;28;20429;-83
2024/01/12 14:12:34;;;;;;;73.75;37.67;;;;;;;;;;5056998;28;20396;-83